Time;durP1;ratioP1;P1;durP2;ratioP2;P2;SDS_P1;SDS_P2;PMS_P1;PMS_P2;Temp;Humidity;BMP_temperature;BMP_pressure;BME280_temperature;BME280_humidity;BME280_pressure;Samples;Min_cycle;Max_cycle;Signal;HPM_P1;HPM_P2
2022/11/16 00:02:02;;;;;;;66.70;33.38;;;;;;;7.85;57.67;93576.19;5045470;28;20032;-74
2022/11/16 00:04:27;;;;;;;57.25;31.75;;;;;;;7.89;57.38;93577.13;5046327;28;20090;-74
2022/11/16 00:06:53;;;;;;;64.07;34.97;;;;;;;7.94;57.48;93582.31;5045557;28;20120;-75
2022/11/16 00:09:21;;;;;;;69.60;36.00;;;;;;;7.73;57.48;93560.06;5044379;28;20124;-75
2022/11/16 00:11:58;;;;;;;76.20;37.55;;;;;;;7.91;57.57;93581.06;5048242;28;20025;-75
2022/11/16 00:14:25;;;;;;;71.18;33.22;;;;;;;7.75;57.29;93558.66;5047087;28;20490;-75
2022/11/16 00:16:51;;;;;;;67.57;35.75;;;;;;;7.94;56.99;93577.00;5045811;28;20082;-75
2022/11/16 00:19:17;;;;;;;68.53;36.17;;;;;;;7.98;57.07;93575.31;5046025;28;20049;-74
2022/11/16 00:21:42;;;;;;;59.22;33.75;;;;;;;7.98;56.83;93572.69;5048153;28;20041;-75
2022/11/16 00:24:11;;;;;;;58.95;37.30;;;;;;;7.97;56.87;93565.84;5053577;28;20048;-74
2022/11/16 00:26:37;;;;;;;71.22;38.47;;;;;;;7.89;56.89;93559.38;5050643;28;20033;-74
2022/11/16 00:29:02;;;;;;;70.90;37.55;;;;;;;8.03;56.87;93575.19;5047112;28;20091;-75
2022/11/16 00:31:28;;;;;;;74.30;40.33;;;;;;;7.98;56.76;93570.03;5050782;28;20174;-75
2022/11/16 00:33:53;;;;;;;67.45;41.15;;;;;;;7.97;56.50;93577.19;5057904;28;20032;-75
2022/11/16 00:36:19;;;;;;;77.43;39.97;;;;;;;8.00;56.35;93570.53;5048907;28;20044;-74
2022/11/16 00:38:44;;;;;;;70.40;37.90;;;;;;;7.94;56.02;93553.19;5050500;28;20040;-75
2022/11/16 00:41:10;;;;;;;64.35;38.83;;;;;;;7.91;55.76;93553.81;5052264;28;20028;-75
2022/11/16 00:43:35;;;;;;;64.07;37.70;;;;;;;7.99;55.65;93563.66;5057153;28;20109;-75
2022/11/16 00:46:02;;;;;;;67.20;36.67;;;;;;;7.82;55.82;93547.66;5047991;28;20147;-75
2022/11/16 00:48:27;;;;;;;80.43;40.50;;;;;;;7.95;55.84;93560.06;5051740;28;20136;-75
2022/11/16 00:50:52;;;;;;;77.13;38.47;;;;;;;7.73;55.58;93536.25;5051385;28;20492;-75
2022/11/16 00:53:19;;;;;;;74.63;39.58;;;;;;;7.79;55.49;93554.34;5048657;28;20024;-75
2022/11/16 00:55:45;;;;;;;71.18;39.35;;;;;;;7.84;55.74;93556.06;5051343;28;20036;-76
2022/11/16 00:58:11;;;;;;;69.00;38.38;;;;;;;7.75;55.71;93537.50;5049189;28;20029;-74
2022/11/16 01:00:38;;;;;;;67.38;37.63;;;;;;;7.85;55.83;93541.75;5050199;28;20132;-74
2022/11/16 01:03:03;;;;;;;66.32;35.60;;;;;;;7.79;55.79;93533.16;5052126;28;20029;-75
2022/11/16 01:05:29;;;;;;;68.35;35.72;;;;;;;7.89;55.69;93540.06;5047802;28;20049;-76
2022/11/16 01:07:56;;;;;;;65.10;34.90;;;;;;;7.83;55.51;93523.53;5048338;28;20032;-75
2022/11/16 01:10:22;;;;;;;61.63;31.77;;;;;;;7.81;55.42;93522.28;5051394;28;20037;-75
2022/11/16 01:12:50;;;;;;;60.40;35.28;;;;;;;7.90;55.67;93529.19;5051499;28;20026;-74
2022/11/16 01:15:17;;;;;;;65.00;32.53;;;;;;;7.91;55.42;93519.38;5050105;28;20505;-74
2022/11/16 01:17:43;;;;;;;59.42;31.73;;;;;;;7.66;55.56;93481.84;5049374;28;20119;-74
2022/11/16 01:20:14;;;;;;;60.20;33.08;;;;;;;7.84;55.17;93505.78;5049551;28;20109;-75
2022/11/16 01:22:40;;;;;;;57.92;30.88;;;;;;;7.59;54.88;93492.03;5049713;28;20135;-75
2022/11/16 01:25:07;;;;;;;55.60;29.25;;;;;;;7.32;54.54;93452.50;5051547;28;20341;-75
2022/11/16 01:27:32;;;;;;;49.67;29.65;;;;;;;7.62;54.77;93510.00;5050694;28;20515;-74
2022/11/16 01:29:58;;;;;;;58.25;29.50;;;;;;;7.48;54.91;93489.97;5049199;28;20120;-75
2022/11/16 01:32:24;;;;;;;62.45;31.90;;;;;;;7.62;55.09;93520.56;5048899;28;20041;-75
2022/11/16 01:34:49;;;;;;;55.17;29.85;;;;;;;7.43;54.91;93487.44;5049172;28;20032;-75
2022/11/16 01:37:15;;;;;;;51.22;28.85;;;;;;;7.26;54.79;93464.28;5049117;28;20032;-74
2022/11/16 01:39:41;;;;;;;53.05;29.85;;;;;;;7.46;54.55;93500.84;5049980;28;20029;-75
2022/11/16 01:42:06;;;;;;;53.35;28.80;;;;;;;7.56;54.64;93516.47;5046455;28;20039;-74
2022/11/16 01:44:31;;;;;;;56.00;29.20;;;;;;;7.56;55.10;93513.81;5048486;28;20155;-74
2022/11/16 01:47:17;;;;;;;51.67;26.88;;;;;;;7.45;55.12;93496.63;5048307;28;20045;-74
2022/11/16 01:49:54;;;;;;;52.03;28.13;;;;;;;7.56;55.22;93513.81;5046852;28;20385;-74
2022/11/16 01:52:24;;;;;;;55.70;28.23;;;;;;;7.55;55.05;93512.25;5046088;28;20037;-74
2022/11/16 01:54:52;;;;;;;61.80;29.80;;;;;;;7.41;55.38;93484.28;5049388;28;20518;-74
2022/11/16 01:57:22;;;;;;;57.85;31.85;;;;;;;7.57;55.52;93499.53;5049148;28;20067;-75
2022/11/16 01:59:52;;;;;;;62.90;33.13;;;;;;;7.60;55.38;93501.56;5047529;28;20029;-75
2022/11/16 02:02:17;;;;;;;62.17;31.27;;;;;;;7.53;55.68;93487.94;5049954;28;20029;-75
2022/11/16 02:04:46;;;;;;;70.18;35.30;;;;;;;7.24;55.48;93437.31;5046350;28;20086;-75
2022/11/16 02:09:52;;;;;;;62.45;34.45;;;;;;;7.51;55.55;93482.19;5048899;28;20396;-75
2022/11/16 02:10:44;;;;;;;64.97;33.50;;;;;;;7.60;55.51;93490.97;5047538;28;20504;-75
2022/11/16 02:13:27;;;;;;;59.38;33.20;;;;;;;7.44;55.50;93468.59;5048214;28;20713;-75
2022/11/16 02:16:18;;;;;;;59.28;32.25;;;;;;;7.61;55.43;93483.81;5049316;28;20025;-75
2022/11/16 02:19:02;;;;;;;60.60;31.83;;;;;;;7.58;55.44;93479.88;5047144;28;20045;-74
2022/11/16 02:21:33;;;;;;;72.68;36.35;;;;;;;7.56;55.37;93487.38;5069187;28;20360;-75
2022/11/16 02:24:13;;;;;;;60.83;34.15;;;;;;;7.56;55.08;93474.13;5068215;28;20032;-74
2022/11/16 02:27:16;;;;;;;73.40;40.05;;;;;;;7.51;55.47;93479.53;5067638;28;20119;-74
2022/11/16 02:29:46;;;;;;;70.88;39.55;;;;;;;7.42;55.66;93468.13;5059539;28;20039;-74
2022/11/16 02:32:36;;;;;;;77.05;43.08;;;;;;;7.10;55.91;93463.03;5069625;28;20044;-74
2022/11/16 02:35:17;;;;;;;78.65;40.72;;;;;;;7.35;55.75;93480.97;5069040;28;20032;-75
2022/11/16 02:37:49;;;;;;;70.03;40.05;;;;;;;7.35;55.39;93474.91;5070439;28;20047;-75
2022/11/16 02:40:18;;;;;;;77.07;39.90;;;;;;;7.33;55.45;93467.28;5070077;28;20107;-75
2022/11/16 02:42:54;;;;;;;74.28;41.78;;;;;;;6.94;54.86;93416.91;5068711;28;20086;-74
2022/11/16 02:45:27;;;;;;;72.80;40.85;;;;;;;7.19;54.39;93459.38;5067573;28;20126;-75
2022/11/16 02:47:57;;;;;;;77.28;43.53;;;;;;;7.17;54.59;93463.44;5068778;28;20037;-75
2022/11/16 02:50:24;;;;;;;79.45;44.22;;;;;;;7.27;54.52;93468.47;5065730;28;20032;-74
2022/11/16 02:52:49;;;;;;;82.28;45.80;;;;;;;7.22;53.92;93474.69;5068918;28;20031;-75
2022/11/16 02:55:15;;;;;;;79.78;44.47;;;;;;;7.19;53.98;93472.63;5070884;28;20028;-74
2022/11/16 02:57:50;;;;;;;85.80;48.20;;;;;;;7.18;54.10;93468.44;5069655;28;20583;-75
2022/11/16 03:00:24;;;;;;;83.10;47.55;;;;;;;7.16;53.65;93472.44;5069746;28;20036;-75
2022/11/16 03:03:00;;;;;;;97.22;49.65;;;;;;;7.06;53.88;93472.66;5069186;28;20050;-74
2022/11/16 03:05:32;;;;;;;112.88;58.95;;;;;;;6.85;54.21;93441.38;5059084;28;20032;-75
2022/11/16 03:08:29;;;;;;;109.22;61.38;;;;;;;7.01;54.85;93465.63;5067820;28;20047;-74
2022/11/16 03:13:47;;;;;;;91.68;54.92;;;;;;;6.70;54.51;93415.28;5067854;28;20100;-75
2022/11/16 03:16:19;;;;;;;113.63;57.17;;;;;;;6.97;54.63;93443.50;5068342;28;20094;-75
2022/11/16 03:18:46;;;;;;;101.72;56.25;;;;;;;6.81;54.32;93424.56;5059169;28;20112;-76
2022/11/16 03:21:36;;;;;;;100.30;54.72;;;;;;;6.85;54.27;93424.75;5068110;28;20052;-75
2022/11/16 03:24:03;;;;;;;106.35;57.50;;;;;;;6.85;54.18;93443.25;5037944;28;20475;-75
2022/11/16 03:26:37;;;;;;;136.57;69.70;;;;;;;6.89;54.55;93448.75;5055675;28;20028;-74
2022/11/16 03:29:19;;;;;;;112.43;64.13;;;;;;;6.79;54.55;93428.59;5032565;28;20048;-74
2022/11/16 03:31:49;;;;;;;127.45;64.90;;;;;;;6.56;54.55;93392.63;5047448;28;20155;-75
2022/11/16 03:34:18;;;;;;;121.50;68.95;;;;;;;6.82;54.31;93426.13;5048088;28;20040;-74
2022/11/16 03:36:47;;;;;;;130.77;65.78;;;;;;;6.79;54.51;93437.31;5037430;28;20653;-75
2022/11/16 03:39:22;;;;;;;116.55;61.67;;;;;;;6.83;54.54;93438.28;5048453;28;20370;-72
2022/11/16 03:41:49;;;;;;;109.72;59.33;;;;;;;6.76;54.75;93431.81;5036475;28;20435;-73
2022/11/16 03:44:17;;;;;;;110.22;59.80;;;;;;;6.57;54.83;93396.84;5057754;28;20072;-73
2022/11/16 03:46:44;;;;;;;115.85;61.67;;;;;;;6.65;54.53;93415.41;5053781;28;20051;-73
2022/11/16 03:49:09;;;;;;;107.05;57.75;;;;;;;6.87;54.70;93449.03;5066794;28;20032;-73
2022/11/16 03:51:35;;;;;;;109.47;59.13;;;;;;;6.74;54.42;93444.56;5052077;28;20482;-74
2022/11/16 03:54:01;;;;;;;100.80;57.60;;;;;;;6.85;54.72;93446.66;5067813;28;20063;-73
2022/11/16 03:56:26;;;;;;;98.38;53.58;;;;;;;6.86;54.68;93453.53;5067187;28;20036;-74
2022/11/16 03:58:52;;;;;;;104.50;57.47;;;;;;;6.81;54.48;93445.72;5068465;28;20032;-74
2022/11/16 04:01:17;;;;;;;101.90;56.90;;;;;;;6.84;54.42;93442.50;5074784;28;20033;-73
2022/11/16 04:03:42;;;;;;;103.95;56.33;;;;;;;6.69;54.72;93403.19;5075635;28;20162;-73
2022/11/16 04:25:42;;;;;;;88.10;49.65;;;;;;;6.43;54.89;93381.03;5073410;28;20054;-73
2022/11/16 04:28:13;;;;;;;91.78;48.78;;;;;;;6.40;55.46;93405.41;5071600;28;20036;-73
2022/11/16 04:39:01;;;;;;;89.45;48.80;;;;;;;6.47;55.73;93407.63;5057992;28;20468;-73
2022/11/16 04:44:13;;;;;;;95.07;51.30;;;;;;;6.35;55.50;93373.81;5074158;28;20090;-73
2022/11/16 04:49:22;;;;;;;109.95;56.55;;;;;;;6.54;55.76;93398.22;5074119;28;20466;-75
2022/11/16 04:51:48;;;;;;;105.68;55.45;;;;;;;6.16;56.61;93386.34;5077744;28;20028;-75
2022/11/16 04:54:13;;;;;;;104.28;53.95;;;;;;;6.31;56.73;93388.69;5072366;28;20032;-75
2022/11/16 04:56:39;;;;;;;105.63;54.75;;;;;;;6.46;56.44;93401.56;5066017;28;20513;-75
2022/11/16 04:59:04;;;;;;;108.07;53.72;;;;;;;6.50;56.46;93407.03;5064660;28;20029;-75
2022/11/16 05:04:13;;;;;;;91.55;48.30;;;;;;;6.50;56.05;93407.81;5076991;28;20150;-73
2022/11/16 05:06:39;;;;;;;97.00;50.65;;;;;;;6.36;56.29;93409.72;5074121;28;20032;-75
2022/11/16 05:09:04;;;;;;;90.90;49.35;;;;;;;6.46;56.07;93401.56;5076877;28;20064;-75
2022/11/16 05:11:29;;;;;;;99.90;50.33;;;;;;;6.40;56.03;93400.13;5072885;28;20434;-75
2022/11/16 05:13:55;;;;;;;94.28;50.20;;;;;;;6.38;56.23;93389.06;5072631;28;20040;-75
2022/11/16 05:16:20;;;;;;;100.95;51.38;;;;;;;6.28;56.42;93376.06;5053752;28;20042;-74
2022/11/16 05:20:59;;;;;;;96.43;50.95;;;;;;;6.46;56.25;93390.97;5073112;28;20387;-75
2022/11/16 05:21:33;;;;;;;108.97;54.67;;;;;;;6.35;56.67;93374.59;5072711;28;20117;-74
2022/11/16 05:26:43;;;;;;;90.55;51.08;;;;;;;6.47;57.17;93370.63;5073013;28;20035;-74
2022/11/16 05:29:08;;;;;;;102.43;52.88;;;;;;;6.15;58.43;93384.75;5072632;28;20043;-74
2022/11/16 05:31:33;;;;;;;103.15;54.85;;;;;;;6.34;58.06;93393.38;5071969;28;20860;-75
2022/11/16 05:33:59;;;;;;;97.28;51.60;;;;;;;6.26;57.66;93375.59;5072185;28;20013;-74
2022/11/16 05:36:24;;;;;;;96.28;55.75;;;;;;;6.35;57.46;93379.88;5072195;28;20495;-74
2022/11/16 05:38:49;;;;;;;103.28;51.25;;;;;;;6.53;57.21;93395.88;5072313;28;20031;-74
2022/11/16 05:41:15;;;;;;;97.82;52.67;;;;;;;6.36;57.42;93364.81;5071304;28;20089;-75
2022/11/16 05:43:40;;;;;;;101.57;54.58;;;;;;;6.53;57.22;93380.81;5054759;28;20036;-74
2022/11/16 05:46:05;;;;;;;105.60;55.65;;;;;;;6.39;57.43;93366.84;5071842;28;20392;-74
2022/11/16 05:48:31;;;;;;;103.18;57.38;;;;;;;6.61;57.42;93395.16;5072407;28;21008;-74
2022/11/16 05:50:57;;;;;;;131.38;67.22;;;;;;;6.53;57.80;93378.16;5072917;28;20089;-74
2022/11/16 05:53:23;;;;;;;105.30;58.70;;;;;;;6.36;58.51;93384.06;5071492;28;20051;-74
2022/11/16 05:55:48;;;;;;;108.43;58.15;;;;;;;6.39;58.12;93359.72;5069941;28;20032;-74
2022/11/16 05:58:13;;;;;;;108.15;55.35;;;;;;;6.55;58.04;93362.81;5070492;28;20226;-74
2022/11/16 06:00:39;;;;;;;114.20;58.05;;;;;;;6.65;58.09;93370.47;5073645;28;20038;-74
2022/11/16 06:03:04;;;;;;;101.47;54.00;;;;;;;6.58;58.34;93393.13;5052087;28;20067;-74
2022/11/16 06:05:30;;;;;;;98.97;52.67;;;;;;;6.24;59.16;93391.72;5061606;28;20040;-74
2022/11/16 06:07:55;;;;;;;106.82;54.35;;;;;;;6.50;59.05;93401.75;5059654;28;20029;-74
2022/11/16 06:10:20;;;;;;;108.30;54.10;;;;;;;6.58;58.57;93378.06;5072354;28;20036;-75
2022/11/16 06:12:46;;;;;;;100.15;51.10;;;;;;;6.42;58.63;93405.88;5070749;28;20095;-75
2022/11/16 06:15:11;;;;;;;92.93;49.08;;;;;;;6.56;58.59;93397.91;5070655;28;20024;-74
2022/11/16 06:17:36;;;;;;;89.57;50.22;;;;;;;6.19;58.00;93354.06;5069525;28;20062;-75
2022/11/16 06:20:02;;;;;;;93.30;49.30;;;;;;;6.43;57.91;93373.09;5052169;28;20059;-75
2022/11/16 06:22:27;;;;;;;100.25;49.65;;;;;;;6.17;58.92;93377.34;5071471;28;20503;-75
2022/11/16 06:24:53;;;;;;;87.93;49.13;;;;;;;6.39;58.65;93401.97;5071708;28;20024;-74
2022/11/16 06:27:18;;;;;;;95.05;51.67;;;;;;;6.41;58.43;93369.97;5052663;28;20603;-75
2022/11/16 06:29:43;;;;;;;95.40;51.63;;;;;;;6.34;58.45;93366.97;5052364;28;20431;-75
2022/11/16 06:32:09;;;;;;;98.63;52.55;;;;;;;6.52;58.72;93392.44;5061576;28;20039;-75
2022/11/16 06:34:34;;;;;;;89.72;50.80;;;;;;;6.51;58.46;93368.94;5070912;28;20086;-75
2022/11/16 06:37:00;;;;;;;90.95;49.13;;;;;;;6.64;58.35;93402.50;5072368;28;20439;-74
2022/11/16 06:39:25;;;;;;;87.35;49.63;;;;;;;6.16;59.49;93370.53;5073718;28;20024;-72
2022/11/16 06:41:50;;;;;;;92.55;48.90;;;;;;;6.37;59.24;93367.13;5069888;28;20060;-74
2022/11/16 06:44:16;;;;;;;90.38;49.90;;;;;;;6.41;59.23;93367.31;5056555;28;20097;-74
2022/11/16 06:46:41;;;;;;;97.13;49.78;;;;;;;6.49;59.04;93352.63;5071035;28;20033;-74
2022/11/16 06:49:06;;;;;;;88.63;48.60;;;;;;;6.62;59.18;93357.09;5070019;28;20498;-76
2022/11/16 06:51:32;;;;;;;92.50;48.08;;;;;;;6.67;59.09;93386.81;5070151;28;20052;-75
2022/11/16 06:53:57;;;;;;;93.07;49.25;;;;;;;6.57;59.39;93360.63;5066219;28;20086;-74
2022/11/16 06:56:23;;;;;;;97.50;47.42;;;;;;;6.74;59.36;93397.00;5066660;28;20041;-74
2022/11/16 06:58:48;;;;;;;83.97;45.28;;;;;;;6.86;59.37;93395.38;5066708;28;20051;-74
2022/11/16 07:01:13;;;;;;;84.93;43.50;;;;;;;6.93;59.05;93394.19;5054524;28;20533;-74
2022/11/16 07:03:39;;;;;;;84.78;42.78;;;;;;;6.97;58.76;93397.78;5065913;28;20191;-74
2022/11/16 07:06:09;;;;;;;75.15;43.33;;;;;;;6.91;58.72;93378.63;5064755;28;20045;-74
2022/11/16 07:08:35;;;;;;;81.47;44.20;;;;;;;6.93;58.47;93402.13;5049731;28;20044;-75
2022/11/16 07:11:02;;;;;;;82.95;44.33;;;;;;;6.94;58.63;93377.25;5060368;28;20362;-75
2022/11/16 07:13:29;;;;;;;76.65;42.88;;;;;;;7.08;58.47;93375.31;5066839;28;20176;-74
2022/11/16 07:16:00;;;;;;;85.80;44.42;;;;;;;7.08;58.16;93364.75;5065461;28;20019;-76
2022/11/16 07:18:25;;;;;;;84.15;43.67;;;;;;;7.14;58.19;93390.75;5068192;28;20048;-75
2022/11/16 07:20:51;;;;;;;86.38;44.15;;;;;;;7.09;58.23;93371.59;5064969;28;20104;-76
2022/11/16 07:23:16;;;;;;;86.88;41.33;;;;;;;7.11;58.75;93396.66;5066960;28;20047;-76
2022/11/16 07:25:45;;;;;;;88.10;43.42;;;;;;;6.95;58.79;93352.34;5069465;28;20033;-76
2022/11/16 07:28:10;;;;;;;87.63;46.45;;;;;;;6.93;59.67;93379.09;5070061;28;20032;-73
2022/11/16 07:30:36;;;;;;;96.13;46.45;;;;;;;7.01;59.95;93380.22;5067991;28;20368;-74
2022/11/16 07:33:01;;;;;;;75.30;41.92;;;;;;;6.61;60.33;93334.38;5068254;28;20118;-76
2022/11/16 07:35:27;;;;;;;80.07;41.92;;;;;;;7.01;59.94;93364.38;5047037;28;20531;-74
2022/11/16 07:37:52;;;;;;;87.45;44.22;;;;;;;7.16;59.66;93372.72;5069170;28;20087;-75
2022/11/16 07:40:18;;;;;;;82.13;41.58;;;;;;;7.10;60.04;93373.13;5055046;28;20044;-76
2022/11/16 07:42:44;;;;;;;86.35;42.00;;;;;;;7.24;59.77;93368.56;5068164;28;20032;-73
2022/11/16 07:45:11;;;;;;;80.78;39.28;;;;;;;7.08;60.80;93375.31;5066573;28;20808;-77
2022/11/16 07:47:37;;;;;;;76.15;40.17;;;;;;;7.28;60.54;93385.41;5067861;28;20039;-73
2022/11/16 07:50:04;;;;;;;85.93;39.67;;;;;;;7.37;60.51;93374.88;5067367;28;20082;-73
2022/11/16 07:52:29;;;;;;;77.95;37.42;;;;;;;7.40;60.85;93372.41;5056829;28;20115;-73
2022/11/16 07:54:55;;;;;;;74.10;37.92;;;;;;;7.34;61.25;93370.94;5066851;28;20030;-74
2022/11/16 07:57:20;;;;;;;83.15;39.00;;;;;;;7.16;61.92;93346.28;5064451;28;20040;-73
2022/11/16 07:59:45;;;;;;;82.50;38.53;;;;;;;7.02;63.21;93355.38;5066623;28;20461;-73
2022/11/16 08:02:11;;;;;;;87.40;42.40;;;;;;;6.83;64.02;93343.13;5069649;28;20043;-73
2022/11/16 08:04:37;;;;;;;83.95;39.63;;;;;;;7.02;63.85;93358.00;5064965;28;20067;-73
2022/11/16 08:07:03;;;;;;;80.43;40.38;;;;;;;7.04;63.20;93327.56;5050040;28;20115;-73
2022/11/16 08:09:28;;;;;;;85.13;38.42;;;;;;;7.14;63.08;93337.09;5065142;28;20035;-73
2022/11/16 08:11:54;;;;;;;84.82;39.10;;;;;;;7.11;63.62;93353.56;5069694;28;20399;-75
2022/11/16 08:14:19;;;;;;;79.47;39.80;;;;;;;7.15;64.29;93359.78;5053005;28;20103;-72
2022/11/16 08:16:45;;;;;;;90.35;38.00;;;;;;;6.73;65.41;93330.16;5046645;28;20048;-73
2022/11/16 08:19:10;;;;;;;90.07;39.65;;;;;;;6.79;65.62;93341.38;5049279;28;20021;-72
2022/11/16 08:21:35;;;;;;;84.97;37.63;;;;;;;6.77;65.29;93294.09;5043799;28;20144;-73
2022/11/16 08:24:01;;;;;;;77.80;36.70;;;;;;;7.23;64.85;93333.41;5046904;28;20330;-73
2022/11/16 08:26:26;;;;;;;82.55;36.28;;;;;;;7.07;65.11;93320.88;5046359;28;20046;-74
2022/11/16 08:28:52;;;;;;;74.57;35.65;;;;;;;7.45;64.21;93337.88;5047708;28;20492;-73
2022/11/16 08:31:23;;;;;;;92.05;39.70;;;;;;;7.18;64.89;93325.63;5044625;28;20413;-72
2022/11/16 08:33:50;;;;;;;89.60;39.75;;;;;;;7.28;65.03;93337.81;5043700;28;20476;-73
2022/11/16 08:36:16;;;;;;;74.75;36.92;;;;;;;7.48;64.88;93337.28;5046254;28;20041;-73
2022/11/16 08:38:46;;;;;;;80.53;37.58;;;;;;;7.42;64.70;93337.69;5042390;28;20134;-74
2022/11/16 08:41:11;;;;;;;80.30;35.17;;;;;;;7.49;64.95;93317.66;5046627;28;20033;-74
2022/11/16 08:43:39;;;;;;;76.20;35.28;;;;;;;7.51;64.71;93325.28;5047602;28;20040;-73
2022/11/16 08:46:06;;;;;;;80.45;35.88;;;;;;;7.55;64.08;93311.16;5047560;28;20032;-73
2022/11/16 08:48:32;;;;;;;72.63;32.25;;;;;;;7.82;63.80;93328.72;5051815;28;20074;-73
2022/11/16 08:51:06;;;;;;;62.85;28.92;;;;;;;7.78;64.22;93311.13;5030066;28;20664;-73
2022/11/16 08:53:31;;;;;;;56.40;25.20;;;;;;;7.91;64.19;93308.34;5051359;28;20041;-73
2022/11/16 08:56:10;;;;;;;52.63;23.35;;;;;;;7.63;65.91;93314.94;5048783;28;20036;-72
2022/11/16 08:58:36;;;;;;;57.95;24.25;;;;;;;7.47;66.41;93325.13;5049144;28;20399;-72
2022/11/16 09:01:13;;;;;;;47.83;24.25;;;;;;;7.52;66.17;93327.63;5029598;28;20021;-73
2022/11/16 09:03:40;;;;;;;53.75;24.65;;;;;;;7.34;66.63;93320.69;5030196;28;20029;-76
2022/11/16 09:06:07;;;;;;;49.65;23.45;;;;;;;7.25;67.44;93330.44;5048164;28;20493;-73
2022/11/16 09:08:34;;;;;;;58.97;25.23;;;;;;;7.21;67.52;93305.69;5050014;28;20044;-72
2022/11/16 09:11:03;;;;;;;46.55;24.88;;;;;;;7.51;67.64;93326.06;5048634;28;20148;-73
2022/11/16 09:13:28;;;;;;;43.42;23.00;;;;;;;7.18;67.08;93253.44;5046770;28;20032;-72
2022/11/16 09:15:58;;;;;;;47.38;22.05;;;;;;;7.37;67.39;93298.94;5072745;28;20318;-74
2022/11/16 09:18:24;;;;;;;42.95;21.02;;;;;;;7.40;67.30;93292.25;5070851;28;20183;-73
2022/11/16 09:20:50;;;;;;;46.30;21.95;;;;;;;7.75;66.98;93293.19;5069852;28;20044;-73
2022/11/16 09:23:15;;;;;;;48.70;23.10;;;;;;;7.92;66.35;93282.66;5068808;28;20086;-73
2022/11/16 09:25:41;;;;;;;45.47;20.38;;;;;;;7.98;66.01;93286.69;5061903;28;20406;-75
2022/11/16 09:28:07;;;;;;;42.88;19.83;;;;;;;7.88;66.01;93276.38;5056095;28;20137;-73
2022/11/16 09:30:33;;;;;;;44.13;21.17;;;;;;;7.74;66.38;93268.56;5070984;28;20083;-73
2022/11/16 09:32:58;;;;;;;44.72;20.90;;;;;;;7.63;67.17;93238.94;5067714;28;20635;-73
2022/11/16 09:35:23;;;;;;;36.38;19.17;;;;;;;7.47;67.30;93232.53;5070741;28;20047;-75
2022/11/16 09:37:49;;;;;;;35.70;18.17;;;;;;;7.52;67.88;93263.34;5070249;28;20040;-72
2022/11/16 09:40:14;;;;;;;35.60;19.13;;;;;;;7.36;67.61;93228.59;5070045;28;20020;-75
2022/11/16 09:43:15;;;;;;;42.00;18.98;;;;;;;7.68;67.71;93257.31;5071320;28;20575;-73
2022/11/16 09:46:27;;;;;;;47.75;21.38;;;;;;;7.64;67.43;93256.38;5062174;28;20047;-75
2022/11/16 09:48:57;;;;;;;39.30;18.20;;;;;;;7.85;67.13;93250.53;4999128;28;20121;-73
2022/11/16 09:51:25;;;;;;;32.80;17.30;;;;;;;7.95;66.05;93244.94;4985204;28;20552;-73
2022/11/16 09:53:57;;;;;;;35.80;19.23;;;;;;;8.04;65.48;93243.09;5037236;28;20476;-73
2022/11/16 09:56:24;;;;;;;35.33;15.85;;;;;;;7.73;65.72;93210.66;5068931;28;20556;-74
2022/11/16 09:59:08;;;;;;;40.08;18.30;;;;;;;8.09;65.70;93245.59;5070335;28;20032;-73
2022/11/16 10:01:49;;;;;;;36.53;17.92;;;;;;;7.76;66.84;93239.94;5052077;28;20044;-72
2022/11/16 10:04:53;;;;;;;42.00;18.45;;;;;;;7.89;66.86;93230.28;5059586;28;20029;-75
2022/11/16 10:07:42;;;;;;;39.75;17.77;;;;;;;8.09;66.86;93232.34;5070988;28;20127;-74
2022/11/16 10:10:29;;;;;;;35.17;19.80;;;;;;;8.11;66.86;93216.94;5070489;28;20036;-73
2022/11/16 10:13:22;;;;;;;44.20;20.98;;;;;;;8.24;65.67;93220.50;5070093;28;20044;-73
2022/11/16 10:16:03;;;;;;;39.78;19.55;;;;;;;8.27;65.86;93210.06;5030404;28;20401;-73
2022/11/16 10:18:45;;;;;;;41.65;20.48;;;;;;;8.26;65.72;93210.38;5069803;28;20036;-74
2022/11/16 10:21:43;;;;;;;35.70;17.55;;;;;;;8.41;65.39;93201.97;5052747;28;20051;-75
2022/11/16 10:24:32;;;;;;;38.33;19.00;;;;;;;8.68;65.60;93187.56;5042832;28;20098;-73
2022/11/16 10:27:15;;;;;;;33.30;19.00;;;;;;;8.70;64.38;93185.38;5054656;28;20055;-74
2022/11/16 10:29:52;;;;;;;39.85;21.45;;;;;;;8.32;63.87;93119.81;5047594;28;20025;-73
2022/11/16 10:32:27;;;;;;;38.67;21.45;;;;;;;8.46;64.67;93173.41;5040030;28;20409;-75
2022/11/16 10:34:54;;;;;;;38.63;20.05;;;;;;;8.23;65.48;93176.56;5051782;28;20037;-75
2022/11/16 10:37:21;;;;;;;37.67;18.83;;;;;;;7.98;66.33;93164.88;5050567;28;20838;-74
2022/11/16 10:39:49;;;;;;;40.35;20.08;;;;;;;7.93;66.91;93176.41;5049606;28;20633;-74
2022/11/16 10:42:21;;;;;;;39.42;20.38;;;;;;;7.89;67.39;93175.47;5050539;28;20420;-74
2022/11/16 10:44:57;;;;;;;42.80;21.15;;;;;;;7.63;67.98;93143.66;5031844;28;20393;-74
2022/11/16 10:47:22;;;;;;;;;;;;;;;7.99;67.47;93177.03;5050867;28;20075;-76
2022/11/16 10:50:02;;;;;;;39.63;18.48;;;;;;;8.20;67.18;93172.69;5049876;28;20392;-74
2022/11/16 10:52:28;;;;;;;43.55;20.48;;;;;;;8.22;66.64;93156.47;5051361;28;20038;-74
2022/11/16 10:54:53;;;;;;;35.97;19.17;;;;;;;8.32;65.90;93151.59;5034455;28;20021;-74
2022/11/16 10:57:19;;;;;;;32.65;19.35;;;;;;;8.22;66.24;93143.22;5051630;28;20029;-74
2022/11/16 10:59:47;;;;;;;36.95;20.25;;;;;;;8.29;65.40;93132.91;5049043;28;20064;-75
2022/11/16 11:02:33;;;;;;;38.13;19.63;;;;;;;8.48;65.60;93131.47;5051592;28;20060;-74
2022/11/16 11:05:14;;;;;;;39.67;20.73;;;;;;;8.62;65.92;93133.16;5050831;28;20033;-74
2022/11/16 11:07:44;;;;;;;43.35;21.73;;;;;;;8.57;65.43;93129.59;5050937;28;20037;-74
2022/11/16 11:10:42;;;;;;;40.95;21.08;;;;;;;8.69;65.24;93126.28;5041167;28;20024;-74
2022/11/16 11:13:10;;;;;;;44.95;22.45;;;;;;;8.74;65.32;93122.69;4999502;28;20059;-75
2022/11/16 11:15:37;;;;;;;40.90;20.38;;;;;;;8.85;65.06;93121.22;5048699;28;20381;-74
2022/11/16 11:18:28;;;;;;;38.28;20.95;;;;;;;9.07;64.10;93113.00;5044191;28;20032;-74
2022/11/16 11:20:57;;;;;;;50.85;23.25;;;;;;;9.04;63.53;93103.06;5047753;28;20416;-74
2022/11/16 11:23:25;;;;;;;47.55;22.95;;;;;;;8.51;63.80;93051.34;5028730;28;20043;-74
2022/11/16 11:25:56;;;;;;;42.05;21.70;;;;;;;9.03;62.98;93088.22;5048677;28;20036;-74
2022/11/16 11:28:31;;;;;;;45.92;22.10;;;;;;;9.14;62.80;93100.06;5048765;28;20078;-74
2022/11/16 11:31:00;;;;;;;46.97;23.98;;;;;;;9.04;62.52;93073.88;5049332;28;20037;-74
2022/11/16 11:33:31;;;;;;;46.00;23.25;;;;;;;9.37;62.83;93090.72;5050537;28;20051;-76
2022/11/16 11:36:04;;;;;;;39.22;20.80;;;;;;;9.40;61.95;93082.09;5048561;28;20073;-73
2022/11/16 11:38:30;;;;;;;38.83;18.60;;;;;;;9.17;62.02;93046.34;5049839;28;20898;-75
2022/11/16 11:41:03;;;;;;;52.42;22.73;;;;;;;9.43;61.99;93081.47;5047975;28;20607;-74
2022/11/16 11:43:32;;;;;;;41.13;20.35;;;;;;;9.59;61.77;93088.81;5027450;28;20044;-74
2022/11/16 11:46:11;;;;;;;35.78;20.60;;;;;;;9.33;62.29;93063.28;5047422;28;20029;-74
2022/11/16 11:48:48;;;;;;;42.85;20.48;;;;;;;9.29;62.60;93080.91;5029635;28;20029;-73
2022/11/16 11:51:34;;;;;;;35.58;19.80;;;;;;;9.27;62.67;93061.13;5042906;28;20040;-74
2022/11/16 11:54:02;;;;;;;44.00;21.92;;;;;;;9.17;63.03;93056.97;5049763;28;20121;-74
2022/11/16 11:56:30;;;;;;;48.30;22.75;;;;;;;9.02;62.80;92997.28;5031635;28;20037;-74
2022/11/16 11:58:56;;;;;;;43.28;21.15;;;;;;;9.35;63.00;93055.75;5048367;28;21005;-74
2022/11/16 12:01:48;;;;;;;37.85;19.67;;;;;;;9.48;62.39;93056.59;5032848;28;20067;-75
2022/11/16 12:04:23;;;;;;;43.65;24.00;;;;;;;9.55;62.14;93051.53;5048558;28;20025;-75
2022/11/16 12:06:57;;;;;;;42.70;21.73;;;;;;;9.38;62.46;93023.28;5046818;28;20017;-74
2022/11/16 12:09:43;;;;;;;46.25;23.23;;;;;;;9.35;63.09;93047.78;5068774;28;20537;-74
2022/11/16 12:12:14;;;;;;;42.03;20.80;;;;;;;9.22;63.47;93048.03;5063988;28;20384;-74
2022/11/16 12:14:50;;;;;;;43.25;21.17;;;;;;;9.24;63.62;93041.28;5049726;28;20033;-74
2022/11/16 12:17:51;;;;;;;44.03;22.08;;;;;;;9.29;63.53;93045.66;5064893;28;20040;-74
2022/11/16 12:20:43;;;;;;;38.67;21.65;;;;;;;9.20;63.52;93019.16;4997768;28;20054;-74